createdAt,value
2022-10-20T00:02:07.132Z,6.76
2022-10-20T00:04:40.166Z,6.76
2022-10-20T00:07:13.626Z,6.78
2022-10-20T00:09:46.863Z,6.76
2022-10-20T00:12:19.843Z,6.75
2022-10-20T00:14:54.407Z,6.73
2022-10-20T00:17:27.904Z,6.71
2022-10-20T00:20:01.593Z,6.67
2022-10-20T00:22:36.525Z,6.63
2022-10-20T00:25:11.301Z,6.61
2022-10-20T00:27:44.584Z,6.58
2022-10-20T00:30:21.347Z,6.58
2022-10-20T00:32:57.286Z,6.58
2022-10-20T00:35:31.168Z,6.59
2022-10-20T00:38:04.572Z,6.58
2022-10-20T00:40:37.768Z,6.57
2022-10-20T00:43:14.130Z,6.54
2022-10-20T00:45:58.254Z,6.49
2022-10-20T00:48:33.670Z,6.46
2022-10-20T00:51:07.293Z,6.45
2022-10-20T00:53:40.542Z,6.46
2022-10-20T00:56:14.298Z,6.47
2022-10-20T00:58:48.256Z,6.49
2022-10-20T01:01:22.055Z,6.50
2022-10-20T01:03:55.928Z,6.50
2022-10-20T01:06:29.049Z,6.47
2022-10-20T01:09:03.092Z,6.43
2022-10-20T01:11:45.705Z,6.39
2022-10-20T01:14:35.706Z,6.36
2022-10-20T01:17:20.642Z,6.34
2022-10-20T01:20:29.015Z,6.34
2022-10-20T01:23:40.333Z,6.33
2022-10-20T01:26:38.577Z,6.31
2022-10-20T01:29:18.521Z,6.27
2022-10-20T01:31:59.301Z,6.24
2022-10-20T01:34:39.144Z,6.22
2022-10-20T01:37:28.419Z,6.17
2022-10-20T01:40:20.345Z,6.11
2022-10-20T01:42:56.746Z,6.07
2022-10-20T01:45:33.560Z,6.07
2022-10-20T01:48:11.040Z,6.05
2022-10-20T01:50:45.226Z,6.02
2022-10-20T01:53:18.420Z,5.99
2022-10-20T01:55:54.439Z,5.95
2022-10-20T01:59:00.027Z,5.96
2022-10-20T02:01:48.159Z,5.95
2022-10-20T02:04:30.572Z,5.93
2022-10-20T02:07:14.247Z,5.91
2022-10-20T02:09:50.626Z,5.89
2022-10-20T02:12:29.075Z,5.87
2022-10-20T02:15:04.249Z,5.88
2022-10-20T02:17:40.687Z,5.86
2022-10-20T02:20:15.049Z,5.84
2022-10-20T02:22:49.543Z,5.84
2022-10-20T02:25:23.756Z,5.82
2022-10-20T02:30:39.206Z,5.81
2022-10-20T02:33:13.285Z,5.82
2022-10-20T02:35:57.305Z,5.80
2022-10-20T02:38:30.803Z,5.79
2022-10-20T02:41:04.310Z,5.80
2022-10-20T02:43:38.107Z,5.80
2022-10-20T02:46:11.926Z,5.79
2022-10-20T02:48:45.748Z,5.76
2022-10-20T02:51:19.350Z,5.73
2022-10-20T02:53:55.132Z,5.71
2022-10-20T02:56:30.950Z,5.70
2022-10-20T02:59:04.803Z,5.70
2022-10-20T03:01:37.952Z,5.68
2022-10-20T03:04:11.704Z,5.65
2022-10-20T03:06:45.583Z,5.64
2022-10-20T03:09:18.642Z,5.64
2022-10-20T03:11:52.413Z,5.59
2022-10-20T03:14:25.849Z,5.57
2022-10-20T03:16:59.083Z,5.59
2022-10-20T03:19:32.480Z,5.59
2022-10-20T03:22:05.686Z,5.60
2022-10-20T03:24:39.193Z,5.59
2022-10-20T03:27:12.232Z,5.56
2022-10-20T03:29:45.630Z,5.54
2022-10-20T03:32:18.792Z,5.53
2022-10-20T03:34:52.017Z,5.50
2022-10-20T03:37:25.449Z,5.49
2022-10-20T03:39:58.737Z,5.47
2022-10-20T03:42:31.914Z,5.47
2022-10-20T03:45:05.450Z,5.45
2022-10-20T03:47:39.006Z,5.42
2022-10-20T03:50:12.903Z,5.39
2022-10-20T03:52:48.792Z,5.36
2022-10-20T03:55:22.298Z,5.31
2022-10-20T03:57:55.840Z,5.30
2022-10-20T04:00:29.272Z,5.30
2022-10-20T04:03:02.777Z,5.31
2022-10-20T04:05:35.839Z,5.32
2022-10-20T04:08:09.213Z,5.30
2022-10-20T04:10:42.561Z,5.26
2022-10-20T04:13:16.093Z,5.20
2022-10-20T04:15:49.800Z,5.16
2022-10-20T04:18:23.256Z,5.16
2022-10-20T04:20:56.364Z,5.17
2022-10-20T04:23:30.088Z,5.16
2022-10-20T04:26:08.649Z,5.17
2022-10-20T04:28:42.430Z,5.21
2022-10-20T04:31:16.195Z,5.21
2022-10-20T04:33:49.556Z,5.18
2022-10-20T04:36:23.042Z,5.18
2022-10-20T04:38:56.654Z,5.14
2022-10-20T04:41:30.253Z,5.08
2022-10-20T04:44:03.845Z,5.06
2022-10-20T04:46:37.293Z,5.06
2022-10-20T04:49:10.047Z,5.04
2022-10-20T04:51:43.476Z,5.03
2022-10-20T04:54:16.895Z,5.01
2022-10-20T04:56:50.492Z,5.02
2022-10-20T04:59:23.953Z,5.02
2022-10-20T05:01:57.647Z,5.02
2022-10-20T05:04:31.175Z,5.03
2022-10-20T05:07:04.471Z,5.04
2022-10-20T05:09:38.069Z,5.05
2022-10-20T05:12:11.224Z,5.09
2022-10-20T05:14:44.188Z,5.12
2022-10-20T05:17:17.453Z,5.15
2022-10-20T05:19:50.557Z,5.16
2022-10-20T05:22:24.266Z,5.18
2022-10-20T05:25:04.010Z,5.21
2022-10-20T05:27:46.663Z,5.26
2022-10-20T05:30:20.421Z,5.30
2022-10-20T05:32:53.708Z,5.33
2022-10-20T05:35:26.804Z,5.36
2022-10-20T05:37:59.856Z,5.40
2022-10-20T05:40:33.092Z,5.48
2022-10-20T05:43:06.061Z,5.56
2022-10-20T05:45:39.597Z,5.62
2022-10-20T05:48:13.599Z,5.69
2022-10-20T05:50:46.583Z,5.78
2022-10-20T05:53:20.071Z,5.83
2022-10-20T05:55:53.387Z,5.90
2022-10-20T05:58:27.123Z,5.98
2022-10-20T06:01:08.178Z,6.04
2022-10-20T06:03:41.602Z,6.11
2022-10-20T06:06:15.212Z,6.16
2022-10-20T06:08:49.065Z,6.21
2022-10-20T06:11:23.287Z,6.29
2022-10-20T06:13:58.006Z,6.35
2022-10-20T06:16:33.140Z,6.43
2022-10-20T06:19:07.538Z,6.57
2022-10-20T06:24:18.932Z,6.81
2022-10-20T06:26:52.073Z,6.94
2022-10-20T06:29:25.358Z,7.06
2022-10-20T06:31:58.750Z,7.18
2022-10-20T06:34:32.702Z,7.25
2022-10-20T06:37:06.485Z,7.30
2022-10-20T06:39:40.169Z,7.33
2022-10-20T06:42:16.867Z,7.37
2022-10-20T06:44:52.889Z,7.51
2022-10-20T06:47:26.894Z,7.64
2022-10-20T06:50:00.447Z,7.76
2022-10-20T06:52:34.561Z,7.86
2022-10-20T06:55:10.084Z,7.91
2022-10-20T06:57:44.083Z,8.02
2022-10-20T07:00:18.362Z,8.05
2022-10-20T07:02:52.127Z,8.12
2022-10-20T07:05:25.241Z,8.19
2022-10-20T07:07:58.573Z,8.26
2022-10-20T07:10:32.174Z,8.31
2022-10-20T07:13:05.607Z,8.42
2022-10-20T07:15:38.786Z,8.58
2022-10-20T07:18:12.025Z,8.68
2022-10-20T07:20:45.460Z,8.75
2022-10-20T07:23:18.723Z,8.91
2022-10-20T07:25:52.181Z,9.12
2022-10-20T07:28:25.878Z,9.32
2022-10-20T07:30:59.176Z,9.46
2022-10-20T07:33:32.721Z,9.53
2022-10-20T07:36:14.984Z,9.60
2022-10-20T07:38:48.832Z,9.70
2022-10-20T07:41:22.575Z,9.79
2022-10-20T07:43:57.129Z,9.93
2022-10-20T07:46:30.168Z,10.00
2022-10-20T07:49:38.293Z,10.11
2022-10-20T07:51:58.683Z,10.21
2022-10-20T07:54:32.264Z,10.29
2022-10-20T07:57:05.748Z,10.46
2022-10-20T07:59:38.891Z,10.66
2022-10-20T08:02:13.917Z,10.92
2022-10-20T08:04:47.610Z,11.11
2022-10-20T08:07:21.731Z,11.24
2022-10-20T08:09:55.302Z,11.46
2022-10-20T08:12:28.408Z,11.70
2022-10-20T08:17:52.171Z,11.90
2022-10-20T08:20:27.220Z,12.12
2022-10-20T08:23:00.632Z,12.26
2022-10-20T08:25:34.669Z,12.38
2022-10-20T08:28:08.431Z,12.36
2022-10-20T08:30:42.036Z,12.28
2022-10-20T08:33:15.799Z,12.19
2022-10-20T08:35:49.121Z,12.06
2022-10-20T08:38:22.639Z,12.18
2022-10-20T08:40:56.016Z,12.64
2022-10-20T08:43:31.038Z,13.21
2022-10-20T08:46:04.225Z,13.60
2022-10-20T08:48:38.103Z,13.86
2022-10-20T08:51:20.485Z,14.20
2022-10-20T08:53:57.116Z,14.53
2022-10-20T08:56:32.399Z,14.68
2022-10-20T08:59:06.422Z,14.78
2022-10-20T09:01:40.591Z,14.84
2022-10-20T09:04:22.182Z,14.84
2022-10-20T09:07:01.490Z,14.66
2022-10-20T09:09:35.721Z,14.36
2022-10-20T09:12:13.899Z,14.20
2022-10-20T09:14:47.406Z,14.29
2022-10-20T09:17:21.282Z,14.56
2022-10-20T09:20:00.007Z,14.80
2022-10-20T09:22:35.745Z,14.95
2022-10-20T09:25:14.969Z,15.09
2022-10-20T09:27:49.128Z,15.27
2022-10-20T09:30:24.547Z,15.43
2022-10-20T09:32:58.808Z,15.63
2022-10-20T09:35:35.641Z,15.66
2022-10-20T09:38:22.981Z,15.34
2022-10-20T09:41:07.465Z,14.89
2022-10-20T09:43:42.736Z,14.54
2022-10-20T09:46:21.059Z,14.34
2022-10-20T09:48:56.342Z,14.16
2022-10-20T09:51:31.222Z,14.01
2022-10-20T09:54:07.733Z,13.83
2022-10-20T09:56:43.537Z,13.81
2022-10-20T09:59:26.993Z,13.81
2022-10-20T10:02:02.645Z,13.68
2022-10-20T10:04:38.584Z,13.55
2022-10-20T10:07:33.230Z,13.52
2022-10-20T10:10:09.889Z,13.75
2022-10-20T10:12:53.361Z,14.34
2022-10-20T10:15:32.968Z,15.02
2022-10-20T10:18:16.320Z,15.85
2022-10-20T10:20:49.681Z,16.43
2022-10-20T10:23:28.524Z,16.49
2022-10-20T10:26:02.079Z,16.44
2022-10-20T10:28:39.222Z,16.36
2022-10-20T10:31:27.047Z,16.04
2022-10-20T10:34:29.054Z,15.62
2022-10-20T10:37:02.609Z,15.27
2022-10-20T10:39:38.089Z,15.12
2022-10-20T10:42:40.709Z,16.46
2022-10-20T10:45:29.140Z,18.77
2022-10-20T10:48:25.059Z,20.10
2022-10-20T10:51:01.680Z,20.87
2022-10-20T10:53:52.094Z,20.57
2022-10-20T10:56:35.125Z,19.70
2022-10-20T10:59:13.063Z,18.79
2022-10-20T11:02:18.689Z,18.00
2022-10-20T11:05:22.659Z,17.42
2022-10-20T11:08:05.304Z,18.18
2022-10-20T11:10:48.095Z,18.91
2022-10-20T11:13:31.550Z,19.50
2022-10-20T11:16:15.840Z,20.74
2022-10-20T11:19:18.467Z,22.26
2022-10-20T11:22:02.631Z,23.95
2022-10-20T11:24:47.793Z,24.96
2022-10-20T11:27:26.483Z,25.11
2022-10-20T11:30:05.945Z,25.24
2022-10-20T11:32:42.661Z,24.95
2022-10-20T11:35:30.623Z,24.83
2022-10-20T11:38:17.613Z,25.79
2022-10-20T11:40:56.682Z,26.53
2022-10-20T11:43:36.622Z,26.30
2022-10-20T11:46:13.182Z,26.01
2022-10-20T11:48:50.810Z,25.90
2022-10-20T11:51:56.800Z,25.47
2022-10-20T11:54:47.444Z,25.30
2022-10-20T11:57:27.209Z,24.81
2022-10-20T12:03:39.424Z,24.70
2022-10-20T12:06:44.191Z,24.48
2022-10-20T12:09:44.604Z,23.62
2022-10-20T12:12:22.988Z,22.76
2022-10-20T12:15:01.134Z,22.04
2022-10-20T12:17:43.643Z,21.36
2022-10-20T12:21:03.419Z,20.72
2022-10-20T12:24:06.092Z,20.24
2022-10-20T12:27:12.238Z,19.73
2022-10-20T12:30:31.454Z,19.56
2022-10-20T12:33:20.973Z,19.32
2022-10-20T12:36:15.671Z,18.92
2022-10-20T12:38:52.336Z,18.57
2022-10-20T12:41:34.269Z,18.28
2022-10-20T12:44:15.384Z,17.99
2022-10-20T12:46:57.484Z,17.75
2022-10-20T12:49:36.375Z,17.57
2022-10-20T12:52:18.901Z,17.36
2022-10-20T12:55:00.414Z,17.10
2022-10-20T12:57:42.141Z,16.89
2022-10-20T13:00:46.280Z,16.67
2022-10-20T13:03:44.578Z,16.47
2022-10-20T13:06:46.704Z,16.30
2022-10-20T13:09:25.301Z,16.13
2022-10-20T13:12:04.814Z,16.00
2022-10-20T13:14:57.446Z,15.83
2022-10-20T13:17:39.416Z,15.65
2022-10-20T13:20:29.362Z,15.52
2022-10-20T13:23:03.904Z,15.44
2022-10-20T13:25:41.554Z,15.34
2022-10-20T13:28:23.698Z,15.23
2022-10-20T13:31:24.080Z,15.18
2022-10-20T13:34:06.986Z,15.14
2022-10-20T13:36:55.950Z,15.06
2022-10-20T13:39:39.457Z,14.96
2022-10-20T13:42:26.867Z,14.85
2022-10-20T13:45:09.328Z,14.80
2022-10-20T13:47:56.590Z,14.76
2022-10-20T13:50:35.116Z,14.72
2022-10-20T13:53:21.046Z,14.70
2022-10-20T13:56:05.718Z,14.67
2022-10-20T13:58:39.344Z,14.58
2022-10-20T14:01:23.733Z,14.53
2022-10-20T14:03:57.851Z,14.51
2022-10-20T14:06:36.905Z,14.50
2022-10-20T14:09:17.306Z,14.46
2022-10-20T14:11:53.767Z,14.42
2022-10-20T14:14:29.053Z,14.41
2022-10-20T14:17:04.903Z,14.41
2022-10-20T14:19:41.302Z,14.39
2022-10-20T14:22:22.738Z,14.34
2022-10-20T14:24:59.968Z,14.30
2022-10-20T14:27:38.430Z,14.25
2022-10-20T14:30:18.494Z,14.19
2022-10-20T14:32:53.213Z,14.12
2022-10-20T14:35:34.324Z,14.07
2022-10-20T14:38:17.539Z,14.02
2022-10-20T14:40:56.010Z,14.00
2022-10-20T14:43:39.382Z,13.97
2022-10-20T14:46:15.654Z,13.94
2022-10-20T14:48:52.207Z,13.92
2022-10-20T14:51:45.457Z,13.89
2022-10-20T14:54:26.909Z,13.82
2022-10-20T14:57:01.760Z,13.74
2022-10-20T14:59:39.019Z,13.64
2022-10-20T15:02:19.279Z,13.57
2022-10-20T15:04:53.580Z,13.55
2022-10-20T15:07:30.723Z,13.51
2022-10-20T15:10:11.502Z,13.48
2022-10-20T15:12:48.405Z,13.44
2022-10-20T15:15:27.445Z,13.40
2022-10-20T15:18:16.943Z,13.37
2022-10-20T15:20:51.200Z,13.31
2022-10-20T15:23:26.029Z,13.24
2022-10-20T15:26:04.854Z,13.15
2022-10-20T15:28:45.587Z,13.06
2022-10-20T15:31:24.742Z,12.98
2022-10-20T15:34:00.016Z,12.90
2022-10-20T15:36:41.709Z,12.84
2022-10-20T15:39:16.306Z,12.80
2022-10-20T15:41:53.016Z,12.73
2022-10-20T15:44:28.540Z,12.68
2022-10-20T15:47:01.656Z,12.65
2022-10-20T15:49:35.535Z,12.60
2022-10-20T15:52:09.691Z,12.54
2022-10-20T15:54:42.673Z,12.48
2022-10-20T15:57:16.618Z,12.40
2022-10-20T15:59:49.996Z,12.36
2022-10-20T16:02:24.939Z,12.27
2022-10-20T16:04:57.752Z,12.22
2022-10-20T16:07:31.125Z,12.15
2022-10-20T16:10:05.101Z,12.07
2022-10-20T16:12:40.120Z,12.00
2022-10-20T16:15:14.400Z,11.94
2022-10-20T16:20:23.673Z,11.83
2022-10-20T16:22:56.775Z,11.79
2022-10-20T16:25:30.305Z,11.75
2022-10-20T16:28:04.164Z,11.73
2022-10-20T16:30:37.478Z,11.68
2022-10-20T16:33:11.161Z,11.62
2022-10-20T16:35:45.785Z,11.58
2022-10-20T16:38:19.016Z,11.49
2022-10-20T16:41:01.858Z,11.41
2022-10-20T16:43:38.294Z,11.34
2022-10-20T16:46:13.989Z,11.27
2022-10-20T16:48:48.482Z,11.20
2022-10-20T16:51:22.088Z,11.17
2022-10-20T16:54:00.793Z,11.15
2022-10-20T16:56:37.110Z,11.13
2022-10-20T16:59:10.269Z,11.09
2022-10-20T17:01:43.683Z,11.06
2022-10-20T17:04:18.381Z,11.07
2022-10-20T17:06:52.029Z,11.08
2022-10-20T17:09:26.250Z,11.09
2022-10-20T17:11:59.823Z,11.07
2022-10-20T17:14:34.153Z,11.05
2022-10-20T17:17:07.119Z,11.04
2022-10-20T17:19:43.865Z,10.99
2022-10-20T17:22:17.678Z,10.94
2022-10-20T17:24:54.348Z,10.87
2022-10-20T17:27:29.458Z,10.81
2022-10-20T17:30:03.816Z,10.75
2022-10-20T17:32:38.689Z,10.68
2022-10-20T17:35:15.421Z,10.57
2022-10-20T17:37:50.135Z,10.45
2022-10-20T17:40:25.133Z,10.33
2022-10-20T17:43:03.451Z,10.25
2022-10-20T17:45:38.784Z,10.18
2022-10-20T17:48:14.214Z,10.16
2022-10-20T17:50:48.549Z,10.13
2022-10-20T17:53:24.553Z,10.07
2022-10-20T17:56:02.307Z,10.02
2022-10-20T17:58:37.424Z,9.96
2022-10-20T18:01:16.207Z,9.91
2022-10-20T18:03:55.307Z,9.85
2022-10-20T18:06:36.247Z,9.78
2022-10-20T18:09:12.916Z,9.73
2022-10-20T18:11:49.049Z,9.67
2022-10-20T18:14:23.622Z,9.60
2022-10-20T18:16:58.250Z,9.53
2022-10-20T18:19:35.029Z,9.49
2022-10-20T18:22:12.503Z,9.46
2022-10-20T18:24:48.297Z,9.40
2022-10-20T18:27:24.254Z,9.38
2022-10-20T18:29:58.497Z,9.37
2022-10-20T18:32:33.015Z,9.33
2022-10-20T18:35:08.470Z,9.29
2022-10-20T18:37:42.821Z,9.24
2022-10-20T18:40:17.589Z,9.22
2022-10-20T18:42:51.985Z,9.17
2022-10-20T18:45:27.295Z,9.09
2022-10-20T18:48:02.661Z,9.04
2022-10-20T18:50:36.576Z,9.01
2022-10-20T18:53:11.138Z,8.96
2022-10-20T18:55:46.097Z,8.93
2022-10-20T18:58:22.499Z,8.90
2022-10-20T19:01:04.241Z,8.90
2022-10-20T19:03:39.016Z,8.89
2022-10-20T19:06:15.201Z,8.89
2022-10-20T19:08:53.567Z,8.88
2022-10-20T19:11:29.982Z,8.84
2022-10-20T19:14:05.782Z,8.79
2022-10-20T19:16:41.699Z,8.72
2022-10-20T19:19:16.860Z,8.66
2022-10-20T19:21:51.946Z,8.59
2022-10-20T19:24:28.101Z,8.52
2022-10-20T19:30:02.203Z,8.42
2022-10-20T19:32:41.595Z,8.39
2022-10-20T19:35:17.504Z,8.37
2022-10-20T19:37:51.364Z,8.35
2022-10-20T19:40:29.384Z,8.34
2022-10-20T19:43:04.212Z,8.28
2022-10-20T19:45:38.679Z,8.19
2022-10-20T19:48:14.854Z,8.12
2022-10-20T19:50:49.779Z,8.06
2022-10-20T19:53:24.429Z,8.00
2022-10-20T19:55:58.505Z,7.94
2022-10-20T19:58:32.874Z,7.89
2022-10-20T20:01:07.150Z,7.86
2022-10-20T20:03:41.473Z,7.87
2022-10-20T20:06:17.728Z,7.83
2022-10-20T20:08:54.826Z,7.76
2022-10-20T20:11:33.193Z,7.75
2022-10-20T20:14:10.054Z,7.72
2022-10-20T20:16:47.125Z,7.70
2022-10-20T20:19:22.276Z,7.67
2022-10-20T20:21:57.387Z,7.62
2022-10-20T20:24:31.761Z,7.57
2022-10-20T20:27:05.142Z,7.50
2022-10-20T20:29:38.232Z,7.47
2022-10-20T20:32:12.168Z,7.47
2022-10-20T20:34:45.658Z,7.46
2022-10-20T20:37:19.454Z,7.46
2022-10-20T20:39:53.474Z,7.42
2022-10-20T20:42:26.769Z,7.40
2022-10-20T20:45:00.153Z,7.39
2022-10-20T20:47:36.016Z,7.35
2022-10-20T20:50:11.698Z,7.33
2022-10-20T20:52:46.380Z,7.27
2022-10-20T20:55:19.827Z,7.23
2022-10-20T20:57:52.955Z,7.22
2022-10-20T21:00:26.404Z,7.19
2022-10-20T21:02:59.903Z,7.18
2022-10-20T21:05:33.230Z,7.17
2022-10-20T21:08:06.981Z,7.16
2022-10-20T21:10:40.656Z,7.13
2022-10-20T21:13:13.845Z,7.10
2022-10-20T21:15:47.211Z,7.08
2022-10-20T21:18:20.557Z,7.04
2022-10-20T21:20:53.637Z,6.99
2022-10-20T21:23:26.985Z,6.96
2022-10-20T21:26:00.255Z,6.93
2022-10-20T21:28:33.859Z,6.90
2022-10-20T21:31:09.841Z,6.86
2022-10-20T21:33:43.851Z,6.83
2022-10-20T21:36:19.613Z,6.83
2022-10-20T21:38:53.329Z,6.83
2022-10-20T21:41:29.333Z,6.81
2022-10-20T21:44:04.917Z,6.78
2022-10-20T21:46:42.271Z,6.71
2022-10-20T21:49:17.474Z,6.64
2022-10-20T21:51:52.909Z,6.60
2022-10-20T21:54:27.768Z,6.59
2022-10-20T21:57:01.312Z,6.57
2022-10-20T21:59:34.975Z,6.56
2022-10-20T22:02:13.873Z,6.57
2022-10-20T22:04:47.728Z,6.56
2022-10-20T22:07:20.955Z,6.54
2022-10-20T22:09:54.587Z,6.52
2022-10-20T22:12:28.061Z,6.48
2022-10-20T22:15:01.346Z,6.45
2022-10-20T22:17:35.357Z,6.41
2022-10-20T22:20:11.342Z,6.35
2022-10-20T22:22:44.671Z,6.34
2022-10-20T22:25:18.023Z,6.33
2022-10-20T22:27:51.983Z,6.32
2022-10-20T22:30:25.543Z,6.29
2022-10-20T22:32:59.130Z,6.25
2022-10-20T22:35:32.584Z,6.22
2022-10-20T22:38:05.904Z,6.18
2022-10-20T22:40:39.823Z,6.09
2022-10-20T22:43:13.239Z,6.05
2022-10-20T22:45:47.101Z,6.02
2022-10-20T22:48:20.483Z,6.03
2022-10-20T22:50:53.819Z,6.01
2022-10-20T22:53:27.544Z,5.97
2022-10-20T22:56:08.297Z,5.96
2022-10-20T22:58:42.247Z,5.91
2022-10-20T23:01:17.514Z,5.88
2022-10-20T23:03:51.036Z,5.88
2022-10-20T23:06:25.555Z,5.88
2022-10-20T23:09:00.107Z,5.87
2022-10-20T23:11:33.654Z,5.87
2022-10-20T23:14:07.344Z,5.87
2022-10-20T23:16:40.618Z,5.86
2022-10-20T23:19:14.555Z,5.84
2022-10-20T23:21:48.238Z,5.80
2022-10-20T23:24:21.972Z,5.73
2022-10-20T23:26:55.886Z,5.69
2022-10-20T23:29:29.331Z,5.68
2022-10-20T23:32:02.863Z,5.66
2022-10-20T23:34:36.211Z,5.63
2022-10-20T23:37:09.837Z,5.62
2022-10-20T23:39:43.032Z,5.59
2022-10-20T23:42:16.260Z,5.56
2022-10-20T23:44:49.899Z,5.51
2022-10-20T23:47:23.492Z,5.49
2022-10-20T23:49:57.133Z,5.48
2022-10-20T23:52:30.337Z,5.48
2022-10-20T23:55:03.617Z,5.48
2022-10-20T23:57:36.886Z,5.45
